Lloret de Mar, Spain
Current Conditions -  °F | °C
As of 5:00 AM on Wednesday 26 Nov 2014 (Local Time) from LEGE Reporting Station
Light Fog Light Fog  
Wind Chill: 57°   Ceiling: 400
Heat Index: 57°   Visibility: 2.1mi
Dew Point: 57°   Wind: 0mph
Humidity: 100%   Direction: NA
Pressure: 29.91"   Gusts: NA
Location:  41.7°N, 2.85°E
Report Text: LEGE 260400Z 00000KT 3500 0500S BCFG OVC004 14/14 Q1013
Loading
Personal Weather Stations






























Interactive Weather Map New forecast layout! Learn more

10-Day Weather Forecast

Advertisements
Track Severe Weather on mobile